createdAt,value
2023-03-29T00:01:35.547Z,4.55
2023-03-29T00:04:04.528Z,4.57
2023-03-29T00:06:31.065Z,4.57
2023-03-29T00:08:57.367Z,4.59
2023-03-29T00:11:23.786Z,4.62
2023-03-29T00:13:50.282Z,4.66
2023-03-29T00:16:16.927Z,4.70
2023-03-29T00:18:43.973Z,4.71
2023-03-29T00:21:10.932Z,4.75
2023-03-29T00:23:37.307Z,4.84
2023-03-29T00:26:05.316Z,4.84
2023-03-29T00:28:33.568Z,4.89
2023-03-29T00:31:05.262Z,4.92
2023-03-29T00:33:31.896Z,4.90
2023-03-29T00:35:58.301Z,4.84
2023-03-29T00:38:24.656Z,4.80
2023-03-29T00:40:50.984Z,4.77
2023-03-29T00:43:17.414Z,4.68
2023-03-29T00:45:43.725Z,4.67
2023-03-29T00:48:17.200Z,4.62
2023-03-29T00:50:48.623Z,4.64
2023-03-29T00:53:27.361Z,4.67
2023-03-29T00:56:05.450Z,4.68
2023-03-29T00:58:37.206Z,4.68
2023-03-29T01:01:07.693Z,4.71
2023-03-29T01:03:42.211Z,4.74
2023-03-29T01:06:10.398Z,4.77
2023-03-29T01:08:52.816Z,4.78
2023-03-29T01:11:24.762Z,4.71
2023-03-29T01:14:02.892Z,4.73
2023-03-29T01:16:31.494Z,4.70
2023-03-29T01:18:57.901Z,4.69
2023-03-29T01:21:42.994Z,4.70
2023-03-29T01:24:51.571Z,4.72
2023-03-29T01:27:50.279Z,4.77
2023-03-29T01:30:22.805Z,4.78
2023-03-29T01:32:57.245Z,4.79
2023-03-29T01:35:46.689Z,4.78
2023-03-29T01:38:18.730Z,4.81
2023-03-29T01:40:45.152Z,4.82
2023-03-29T01:43:21.811Z,4.85
2023-03-29T01:45:58.461Z,4.86
2023-03-29T01:48:30.666Z,4.84
2023-03-29T01:51:16.011Z,4.81
2023-03-29T01:53:49.482Z,4.75
2023-03-29T01:56:26.328Z,4.79
2023-03-29T01:58:57.950Z,4.84
2023-03-29T02:01:27.999Z,4.87
2023-03-29T02:03:59.126Z,4.91
2023-03-29T02:06:27.836Z,4.93
2023-03-29T02:08:54.792Z,4.93
2023-03-29T02:11:24.202Z,4.93
2023-03-29T02:13:50.504Z,4.92
2023-03-29T02:16:17.371Z,4.90
2023-03-29T02:18:46.104Z,4.90
2023-03-29T02:21:19.654Z,4.87
2023-03-29T02:23:46.728Z,4.84
2023-03-29T02:26:13.737Z,4.84
2023-03-29T02:28:41.729Z,4.82
2023-03-29T02:31:16.343Z,4.79
2023-03-29T02:33:56.921Z,4.78
2023-03-29T02:36:29.518Z,4.76
2023-03-29T02:38:59.040Z,4.75
2023-03-29T02:41:26.604Z,4.81
2023-03-29T02:43:55.485Z,4.86
2023-03-29T02:46:22.080Z,4.82
2023-03-29T02:48:51.027Z,4.80
2023-03-29T02:51:24.347Z,4.82
2023-03-29T02:54:01.725Z,4.79
2023-03-29T02:56:28.135Z,4.73
2023-03-29T02:58:54.500Z,4.73
2023-03-29T03:01:20.945Z,4.73
2023-03-29T03:03:47.695Z,4.68
2023-03-29T03:06:14.014Z,4.65
2023-03-29T03:08:40.406Z,4.61
2023-03-29T03:11:06.708Z,4.56
2023-03-29T03:13:32.998Z,4.52
2023-03-29T03:15:59.413Z,4.50
2023-03-29T03:18:25.757Z,4.48
2023-03-29T03:20:59.410Z,4.47
2023-03-29T03:23:26.013Z,4.49
2023-03-29T03:25:52.658Z,4.49
2023-03-29T03:28:20.024Z,4.46
2023-03-29T03:30:46.308Z,4.43
2023-03-29T03:33:12.600Z,4.42
2023-03-29T03:35:39.185Z,4.44
2023-03-29T03:38:05.541Z,4.44
2023-03-29T03:40:32.225Z,4.45
2023-03-29T03:42:58.514Z,4.46
2023-03-29T03:45:24.838Z,4.47
2023-03-29T03:47:51.760Z,4.51
2023-03-29T03:50:18.248Z,4.57
2023-03-29T03:52:44.702Z,4.58
2023-03-29T03:55:11.047Z,4.57
2023-03-29T03:57:37.449Z,4.61
2023-03-29T04:00:05.589Z,4.63
2023-03-29T04:02:31.937Z,4.62
2023-03-29T04:04:58.288Z,4.62
2023-03-29T04:07:24.613Z,4.62
2023-03-29T04:09:50.926Z,4.60
2023-03-29T04:12:17.228Z,4.63
2023-03-29T04:14:43.521Z,4.65
2023-03-29T04:17:09.789Z,4.63
2023-03-29T04:19:36.117Z,4.60
2023-03-29T04:22:02.393Z,4.57
2023-03-29T04:24:28.790Z,4.61
2023-03-29T04:26:55.068Z,4.62
2023-03-29T04:29:21.369Z,4.62
2023-03-29T04:31:47.783Z,4.66
2023-03-29T04:34:14.132Z,4.67
2023-03-29T04:36:40.449Z,4.65
2023-03-29T04:39:06.860Z,4.66
2023-03-29T04:41:33.930Z,4.67
2023-03-29T04:44:00.488Z,4.70
2023-03-29T04:46:26.985Z,4.67
2023-03-29T04:48:53.610Z,4.66
2023-03-29T04:51:20.262Z,4.68
2023-03-29T04:53:46.561Z,4.68
2023-03-29T04:56:13.016Z,4.69
2023-03-29T04:58:39.307Z,4.64
2023-03-29T05:01:05.878Z,4.60
2023-03-29T05:03:32.367Z,4.56
2023-03-29T05:06:10.004Z,4.54
2023-03-29T05:08:37.595Z,4.52
2023-03-29T05:11:04.192Z,4.45
2023-03-29T05:13:30.801Z,4.46
2023-03-29T05:15:57.238Z,4.42
2023-03-29T05:18:23.592Z,4.34
2023-03-29T05:20:51.492Z,4.28
2023-03-29T05:23:17.808Z,4.30
2023-03-29T05:25:44.098Z,4.29
2023-03-29T05:28:10.370Z,4.25
2023-03-29T05:30:36.686Z,4.19
2023-03-29T05:33:03.111Z,4.19
2023-03-29T05:35:29.510Z,4.16
2023-03-29T05:37:55.884Z,4.15
2023-03-29T05:40:22.486Z,4.10
2023-03-29T05:42:48.854Z,4.10
2023-03-29T05:45:15.146Z,4.09
2023-03-29T05:47:41.600Z,4.09
2023-03-29T05:50:08.945Z,4.13
2023-03-29T05:52:35.241Z,4.15
2023-03-29T05:55:02.660Z,4.20
2023-03-29T05:57:29.165Z,4.28
2023-03-29T05:59:55.544Z,4.37
2023-03-29T06:02:22.984Z,4.49
2023-03-29T06:04:49.382Z,4.62
2023-03-29T06:07:15.724Z,4.76
2023-03-29T06:09:42.033Z,4.79
2023-03-29T06:12:08.591Z,4.87
2023-03-29T06:14:34.965Z,4.93
2023-03-29T06:17:01.402Z,4.99
2023-03-29T06:19:27.778Z,5.10
2023-03-29T06:21:54.122Z,5.17
2023-03-29T06:24:20.463Z,5.20
2023-03-29T06:26:46.857Z,5.28
2023-03-29T06:29:13.181Z,5.38
2023-03-29T06:31:39.681Z,5.42
2023-03-29T06:34:06.019Z,5.46
2023-03-29T06:36:32.312Z,5.45
2023-03-29T06:38:58.688Z,5.49
2023-03-29T06:41:25.010Z,5.55
2023-03-29T06:43:51.405Z,5.64
2023-03-29T06:46:17.714Z,5.76
2023-03-29T06:48:44.168Z,5.89
2023-03-29T06:51:10.459Z,5.96
2023-03-29T06:53:36.757Z,6.06
2023-03-29T06:56:03.845Z,6.13
2023-03-29T06:58:30.161Z,6.25
2023-03-29T07:01:00.807Z,6.31
2023-03-29T07:03:27.585Z,6.36
2023-03-29T07:05:54.004Z,6.45
2023-03-29T07:08:20.518Z,6.47
2023-03-29T07:10:50.629Z,6.51
2023-03-29T07:13:16.899Z,6.62
2023-03-29T07:15:43.850Z,6.76
2023-03-29T07:18:11.012Z,6.88
2023-03-29T07:20:37.343Z,7.01
2023-03-29T07:23:04.024Z,7.02
2023-03-29T07:25:30.354Z,7.07
2023-03-29T07:27:56.931Z,7.20
2023-03-29T07:30:26.224Z,7.23
2023-03-29T07:32:52.654Z,7.29
2023-03-29T07:35:19.542Z,7.33
2023-03-29T07:37:48.067Z,7.51
2023-03-29T07:40:17.109Z,7.62
2023-03-29T07:42:45.047Z,7.77
2023-03-29T07:45:12.934Z,7.97
2023-03-29T07:47:43.304Z,8.08
2023-03-29T07:50:10.134Z,8.24
2023-03-29T07:52:37.753Z,8.36
2023-03-29T07:55:08.579Z,8.32
2023-03-29T07:57:35.856Z,8.41
2023-03-29T08:00:02.503Z,8.56
2023-03-29T08:02:28.910Z,8.79
2023-03-29T08:04:55.315Z,8.81
2023-03-29T08:07:21.662Z,8.93
2023-03-29T08:09:47.949Z,9.02
2023-03-29T08:12:14.283Z,9.12
2023-03-29T08:14:40.666Z,9.26
2023-03-29T08:17:07.118Z,9.41
2023-03-29T08:19:33.582Z,9.51
2023-03-29T08:22:00.659Z,9.54
2023-03-29T08:24:27.064Z,9.37
2023-03-29T08:26:53.360Z,9.46
2023-03-29T08:29:19.770Z,9.47
2023-03-29T08:31:46.074Z,9.43
2023-03-29T08:34:13.731Z,9.46
2023-03-29T08:36:40.165Z,9.51
2023-03-29T08:39:06.471Z,9.61
2023-03-29T08:41:38.834Z,9.72
2023-03-29T08:44:22.257Z,9.88
2023-03-29T08:47:12.622Z,10.05
2023-03-29T08:49:42.119Z,10.26
2023-03-29T08:52:21.055Z,10.58
2023-03-29T08:54:52.954Z,10.71
2023-03-29T08:57:24.562Z,10.69
2023-03-29T08:59:53.453Z,10.86
2023-03-29T09:02:33.433Z,10.79
2023-03-29T09:05:18.072Z,10.81
2023-03-29T09:07:44.415Z,10.84
2023-03-29T09:10:16.713Z,10.93
2023-03-29T09:13:19.166Z,11.15
2023-03-29T09:16:04.647Z,11.34
2023-03-29T09:18:51.701Z,11.49
2023-03-29T09:21:30.440Z,11.64
2023-03-29T09:24:07.006Z,11.95
2023-03-29T09:26:41.715Z,12.06
2023-03-29T09:29:27.270Z,12.24
2023-03-29T09:31:55.619Z,12.65
2023-03-29T09:34:31.679Z,12.96
2023-03-29T09:37:07.942Z,13.19
2023-03-29T09:39:34.283Z,13.21
2023-03-29T09:42:06.326Z,13.30
2023-03-29T09:44:40.459Z,13.66
2023-03-29T09:47:29.844Z,13.38
2023-03-29T09:50:02.487Z,13.12
2023-03-29T09:52:28.869Z,13.12
2023-03-29T09:54:55.181Z,13.26
2023-03-29T09:57:21.538Z,13.46
2023-03-29T09:59:50.687Z,13.46
2023-03-29T10:02:19.242Z,13.55
2023-03-29T10:04:45.568Z,13.59
2023-03-29T10:07:19.723Z,13.51
2023-03-29T10:09:48.673Z,13.70
2023-03-29T10:12:16.190Z,13.68
2023-03-29T10:14:46.120Z,13.71
2023-03-29T10:17:24.639Z,13.93
2023-03-29T10:20:04.519Z,14.28
2023-03-29T10:22:36.257Z,14.26
2023-03-29T10:25:03.201Z,14.45
2023-03-29T10:27:32.552Z,14.59
2023-03-29T10:30:00.999Z,14.50
2023-03-29T10:32:38.021Z,14.15
2023-03-29T10:35:16.273Z,14.03
2023-03-29T10:37:44.811Z,14.16
2023-03-29T10:40:33.330Z,14.13
2023-03-29T10:43:01.750Z,14.09
2023-03-29T10:45:34.678Z,14.21
2023-03-29T10:48:03.639Z,14.41
2023-03-29T10:50:35.838Z,14.69
2023-03-29T10:53:03.288Z,14.66
2023-03-29T10:55:37.115Z,14.56
2023-03-29T10:58:31.508Z,14.77
2023-03-29T11:00:58.152Z,14.72
2023-03-29T11:03:42.954Z,14.79
2023-03-29T11:06:56.078Z,14.81
2023-03-29T11:09:40.345Z,14.84
2023-03-29T11:12:26.868Z,14.71
2023-03-29T11:15:11.629Z,14.69
2023-03-29T11:17:53.355Z,14.95
2023-03-29T11:20:28.712Z,15.11
2023-03-29T11:23:27.542Z,14.92
2023-03-29T11:26:23.777Z,14.84
2023-03-29T11:29:06.370Z,15.11
2023-03-29T11:31:32.870Z,14.89
2023-03-29T11:34:20.674Z,14.76
2023-03-29T11:36:53.585Z,15.05
2023-03-29T11:39:30.360Z,15.27
2023-03-29T11:42:06.157Z,15.30
2023-03-29T11:44:35.339Z,15.44
2023-03-29T11:47:12.710Z,15.52
2023-03-29T11:50:17.641Z,15.55
2023-03-29T11:52:51.166Z,15.68
2023-03-29T11:55:25.447Z,15.89
2023-03-29T11:57:55.833Z,15.74
2023-03-29T12:00:38.065Z,15.52
2023-03-29T12:03:07.335Z,15.37
2023-03-29T12:05:45.528Z,15.09
2023-03-29T12:08:18.650Z,14.91
2023-03-29T12:11:12.869Z,14.71
2023-03-29T12:14:01.696Z,14.71
2023-03-29T12:16:35.107Z,14.82
2023-03-29T12:19:13.360Z,14.76
2023-03-29T12:21:41.320Z,15.04
2023-03-29T12:24:12.500Z,15.13
2023-03-29T12:27:20.213Z,15.27
2023-03-29T12:30:20.399Z,15.31
2023-03-29T12:32:58.316Z,15.57
2023-03-29T12:35:49.410Z,15.67
2023-03-29T12:38:20.928Z,15.57
2023-03-29T12:40:53.996Z,15.57
2023-03-29T12:43:30.329Z,15.52
2023-03-29T12:46:08.765Z,15.47
2023-03-29T12:48:38.884Z,15.31
2023-03-29T12:51:11.779Z,15.07
2023-03-29T12:53:42.097Z,15.00
2023-03-29T12:56:17.761Z,15.11
2023-03-29T12:58:53.047Z,15.12
2023-03-29T13:02:11.822Z,15.33
2023-03-29T13:04:50.308Z,15.72
2023-03-29T13:07:22.505Z,15.74
2023-03-29T13:09:51.849Z,15.83
2023-03-29T13:12:25.684Z,15.61
2023-03-29T13:15:07.821Z,15.55
2023-03-29T13:17:36.641Z,15.52
2023-03-29T13:20:32.002Z,15.74
2023-03-29T13:23:30.481Z,15.81
2023-03-29T13:26:20.800Z,15.74
2023-03-29T13:29:14.365Z,15.64
2023-03-29T13:31:49.752Z,15.50
2023-03-29T13:34:37.090Z,15.56
2023-03-29T13:37:22.763Z,15.82
2023-03-29T13:39:54.604Z,16.01
2023-03-29T13:42:32.983Z,15.86
2023-03-29T13:45:29.745Z,15.85
2023-03-29T13:48:28.116Z,15.97
2023-03-29T13:50:57.316Z,16.18
2023-03-29T13:53:32.507Z,16.46
2023-03-29T13:55:59.606Z,16.37
2023-03-29T13:58:47.706Z,16.07
2023-03-29T14:01:27.287Z,16.16
2023-03-29T14:03:55.333Z,15.98
2023-03-29T14:06:26.558Z,16.09
2023-03-29T14:08:54.107Z,16.32
2023-03-29T14:11:29.485Z,16.40
2023-03-29T14:13:58.541Z,16.48
2023-03-29T14:16:39.814Z,16.67
2023-03-29T14:19:15.325Z,16.74
2023-03-29T14:21:43.588Z,16.73
2023-03-29T14:24:20.480Z,16.70
2023-03-29T14:26:47.755Z,16.63
2023-03-29T14:29:14.516Z,16.52
2023-03-29T14:31:42.277Z,16.33
2023-03-29T14:34:17.182Z,16.21
2023-03-29T14:36:45.580Z,16.20
2023-03-29T14:39:23.193Z,16.32
2023-03-29T14:41:53.878Z,16.35
2023-03-29T14:44:21.978Z,16.33
2023-03-29T14:46:48.375Z,16.40
2023-03-29T14:49:20.481Z,16.40
2023-03-29T14:51:47.938Z,16.51
2023-03-29T14:54:24.885Z,16.61
2023-03-29T14:56:52.002Z,16.69
2023-03-29T14:59:37.727Z,16.69
2023-03-29T15:02:04.985Z,16.96
2023-03-29T15:04:35.153Z,16.98
2023-03-29T15:07:05.896Z,16.72
2023-03-29T15:09:34.379Z,16.75
2023-03-29T15:12:02.523Z,16.81
2023-03-29T15:14:32.460Z,16.76
2023-03-29T15:17:09.566Z,16.63
2023-03-29T15:19:36.258Z,16.50
2023-03-29T15:22:07.644Z,16.33
2023-03-29T15:24:34.036Z,16.25
2023-03-29T15:27:10.933Z,16.21
2023-03-29T15:29:40.165Z,16.18
2023-03-29T15:32:06.595Z,16.17
2023-03-29T15:34:33.539Z,16.21
2023-03-29T15:37:01.473Z,16.28
2023-03-29T15:39:29.048Z,16.29
2023-03-29T15:41:56.933Z,16.36
2023-03-29T15:44:27.981Z,16.44
2023-03-29T15:46:55.226Z,16.55
2023-03-29T15:49:21.636Z,16.52
2023-03-29T15:51:47.958Z,16.54
2023-03-29T15:54:14.373Z,16.49
2023-03-29T15:56:48.756Z,16.32
2023-03-29T15:59:15.392Z,16.25
2023-03-29T16:01:42.015Z,16.21
2023-03-29T16:04:14.628Z,16.05
2023-03-29T16:06:42.642Z,15.98
2023-03-29T16:09:09.259Z,15.92
2023-03-29T16:11:35.714Z,15.86
2023-03-29T16:14:02.193Z,15.76
2023-03-29T16:16:28.697Z,15.68
2023-03-29T16:18:55.019Z,15.62
2023-03-29T16:21:22.167Z,15.55
2023-03-29T16:23:48.512Z,15.47
2023-03-29T16:26:16.713Z,15.42
2023-03-29T16:28:43.499Z,15.38
2023-03-29T16:31:11.649Z,15.35
2023-03-29T16:33:38.699Z,15.31
2023-03-29T16:36:05.615Z,15.27
2023-03-29T16:38:32.070Z,15.19
2023-03-29T16:40:58.402Z,15.15
2023-03-29T16:43:24.729Z,15.14
2023-03-29T16:45:51.076Z,15.10
2023-03-29T16:48:19.039Z,15.09
2023-03-29T16:50:46.322Z,15.07
2023-03-29T16:53:12.565Z,15.00
2023-03-29T16:55:38.875Z,14.95
2023-03-29T16:58:05.171Z,14.94
2023-03-29T17:00:31.958Z,14.88
2023-03-29T17:02:58.361Z,14.79
2023-03-29T17:05:24.681Z,14.71
2023-03-29T17:07:50.990Z,14.63
2023-03-29T17:10:17.285Z,14.57
2023-03-29T17:12:43.647Z,14.51
2023-03-29T17:15:10.405Z,14.45
2023-03-29T17:17:37.100Z,14.39
2023-03-29T17:20:05.990Z,14.31
2023-03-29T17:22:32.292Z,14.25
2023-03-29T17:24:58.636Z,14.17
2023-03-29T17:27:25.014Z,14.10
2023-03-29T17:29:51.329Z,14.05
2023-03-29T17:32:17.687Z,14.01
2023-03-29T17:34:44.155Z,13.96
2023-03-29T17:37:10.437Z,13.93
2023-03-29T17:39:36.765Z,13.87
2023-03-29T17:42:04.412Z,13.83
2023-03-29T17:44:30.843Z,13.78
2023-03-29T17:46:57.252Z,13.76
2023-03-29T17:49:23.616Z,13.72
2023-03-29T17:51:50.192Z,13.68
2023-03-29T17:54:16.649Z,13.63
2023-03-29T17:56:43.027Z,13.59
2023-03-29T17:59:09.398Z,13.53
2023-03-29T18:01:38.548Z,13.47
2023-03-29T18:04:05.612Z,13.42
2023-03-29T18:06:32.005Z,13.39
2023-03-29T18:08:58.355Z,13.36
2023-03-29T18:11:24.736Z,13.32
2023-03-29T18:13:52.160Z,13.28
2023-03-29T18:16:22.046Z,13.24
2023-03-29T18:18:48.676Z,13.22
2023-03-29T18:21:16.966Z,13.21
2023-03-29T18:23:47.937Z,13.17
2023-03-29T18:26:16.117Z,13.15
2023-03-29T18:28:44.990Z,13.12
2023-03-29T18:31:11.278Z,13.14
2023-03-29T18:33:37.622Z,13.13
2023-03-29T18:36:07.726Z,13.09
2023-03-29T18:38:35.793Z,13.06
2023-03-29T18:41:03.869Z,13.00
2023-03-29T18:43:31.906Z,12.94
2023-03-29T18:45:58.467Z,12.85
2023-03-29T18:48:25.329Z,12.84
2023-03-29T18:50:52.001Z,12.83
2023-03-29T18:53:18.888Z,12.83
2023-03-29T18:55:45.727Z,12.84
2023-03-29T18:58:13.707Z,12.88
2023-03-29T19:00:41.355Z,12.90
2023-03-29T19:03:08.755Z,12.91
2023-03-29T19:05:39.575Z,12.92
2023-03-29T19:08:06.926Z,12.94
2023-03-29T19:10:37.094Z,12.98
2023-03-29T19:13:03.782Z,12.98
2023-03-29T19:15:31.070Z,12.95
2023-03-29T19:17:57.331Z,12.90
2023-03-29T19:20:23.872Z,12.90
2023-03-29T19:22:50.183Z,12.91
2023-03-29T19:25:16.558Z,12.91
2023-03-29T19:27:42.914Z,12.93
2023-03-29T19:30:09.819Z,12.94
2023-03-29T19:32:36.155Z,12.96
2023-03-29T19:35:02.516Z,12.98
2023-03-29T19:37:28.865Z,12.98
2023-03-29T19:39:55.156Z,12.98
2023-03-29T19:42:21.530Z,12.99
2023-03-29T19:44:47.843Z,13.00
2023-03-29T19:47:14.168Z,12.98
2023-03-29T19:49:40.740Z,12.95
2023-03-29T19:52:07.254Z,12.89
2023-03-29T19:54:33.718Z,12.84
2023-03-29T19:57:00.078Z,12.81
2023-03-29T19:59:26.821Z,12.78
2023-03-29T20:01:53.868Z,12.73
2023-03-29T20:04:21.695Z,12.72
2023-03-29T20:06:48.610Z,12.69
2023-03-29T20:09:15.260Z,12.66
2023-03-29T20:11:42.484Z,12.63
2023-03-29T20:14:08.795Z,12.61
2023-03-29T20:16:35.285Z,12.59
2023-03-29T20:19:02.556Z,12.55
2023-03-29T20:21:29.465Z,12.54
2023-03-29T20:23:56.000Z,12.51
2023-03-29T20:26:22.602Z,12.46
2023-03-29T20:28:49.070Z,12.45
2023-03-29T20:31:15.516Z,12.42
2023-03-29T20:33:41.874Z,12.39
2023-03-29T20:36:08.475Z,12.33
2023-03-29T20:38:35.096Z,12.24
2023-03-29T20:41:02.556Z,12.23
2023-03-29T20:43:29.417Z,12.24
2023-03-29T20:45:55.746Z,12.25
2023-03-29T20:48:23.319Z,12.26
2023-03-29T20:50:50.429Z,12.25
2023-03-29T20:53:16.829Z,12.26
2023-03-29T20:55:43.195Z,12.25
2023-03-29T20:58:09.804Z,12.26
2023-03-29T21:00:36.117Z,12.25
2023-03-29T21:03:02.499Z,12.23
2023-03-29T21:05:31.830Z,12.19
2023-03-29T21:07:58.513Z,12.14
2023-03-29T21:10:26.572Z,12.08
2023-03-29T21:12:52.972Z,11.99
2023-03-29T21:15:19.272Z,11.98
2023-03-29T21:17:46.074Z,11.99
2023-03-29T21:20:13.672Z,12.03
2023-03-29T21:22:41.475Z,12.05
2023-03-29T21:25:12.680Z,12.03
2023-03-29T21:27:38.963Z,11.99
2023-03-29T21:30:06.408Z,11.98
2023-03-29T21:32:32.871Z,11.94
2023-03-29T21:34:59.282Z,11.92
2023-03-29T21:37:26.011Z,11.92
2023-03-29T21:39:52.317Z,11.87
2023-03-29T21:42:18.720Z,11.82
2023-03-29T21:44:45.132Z,11.81
2023-03-29T21:47:11.464Z,11.77
2023-03-29T21:49:37.938Z,11.75
2023-03-29T21:52:04.356Z,11.74
2023-03-29T21:54:30.660Z,11.72
2023-03-29T21:56:56.978Z,11.69
2023-03-29T21:59:23.421Z,11.65
2023-03-29T22:01:49.754Z,11.63
2023-03-29T22:04:25.792Z,11.59
2023-03-29T22:06:59.898Z,11.55
2023-03-29T22:09:26.195Z,11.54
2023-03-29T22:11:53.021Z,11.52
2023-03-29T22:14:19.497Z,11.49
2023-03-29T22:16:46.055Z,11.45
2023-03-29T22:19:12.452Z,11.42
2023-03-29T22:21:38.751Z,11.43
2023-03-29T22:24:05.362Z,11.43
2023-03-29T22:26:32.907Z,11.44
2023-03-29T22:29:00.499Z,11.46
2023-03-29T22:31:28.485Z,11.47
2023-03-29T22:33:55.558Z,11.47
2023-03-29T22:36:28.266Z,11.48
2023-03-29T22:38:55.522Z,11.45
2023-03-29T22:41:24.026Z,11.43
2023-03-29T22:43:55.583Z,11.41
2023-03-29T22:46:22.762Z,11.39
2023-03-29T22:48:49.475Z,11.38
2023-03-29T22:51:16.434Z,11.39
2023-03-29T22:53:43.868Z,11.42
2023-03-29T22:56:10.306Z,11.38
2023-03-29T22:58:37.435Z,11.38
2023-03-29T23:01:05.025Z,11.39
2023-03-29T23:03:32.122Z,11.40
2023-03-29T23:06:00.051Z,11.40
2023-03-29T23:08:26.679Z,11.42
2023-03-29T23:10:53.341Z,11.43
2023-03-29T23:13:20.038Z,11.45
2023-03-29T23:15:49.265Z,11.46
2023-03-29T23:18:17.839Z,11.46
2023-03-29T23:20:44.777Z,11.45
2023-03-29T23:23:11.375Z,11.46
2023-03-29T23:25:37.850Z,11.46
2023-03-29T23:28:04.840Z,11.46
2023-03-29T23:30:31.378Z,11.46
2023-03-29T23:32:58.267Z,11.46
2023-03-29T23:35:25.020Z,11.43
2023-03-29T23:37:51.729Z,11.43
2023-03-29T23:40:18.577Z,11.40
2023-03-29T23:42:46.393Z,11.37
2023-03-29T23:45:15.861Z,11.37
2023-03-29T23:47:43.191Z,11.36
2023-03-29T23:50:10.377Z,11.31
2023-03-29T23:52:37.115Z,11.27
2023-03-29T23:55:04.295Z,11.26
2023-03-29T23:57:31.102Z,11.24
2023-03-29T23:59:57.669Z,11.25
